Time;durP1;ratioP1;P1;durP2;ratioP2;P2;SDS_P1;SDS_P2;PMS_P1;PMS_P2;Temp;Humidity;BMP_temperature;BMP_pressure;BME280_temperature;BME280_humidity;BME280_pressure;Samples;Min_cycle;Max_cycle;Signal;HPM_P1;HPM_P2
2024/03/31 00:01:02;;;;;;;;;;;;;;;;;;2580492;23;19946;-87
2024/03/31 00:02:03;;;;;;;;;;;;;;;;;;2563230;22;19920;-86
2024/03/31 00:03:04;;;;;;;;;;;;;;;;;;2581071;23;19969;-87
2024/03/31 00:04:05;;;;;;;;;;;;;;;;;;2580904;23;19927;-87
2024/03/31 00:05:06;;;;;;;;;;;;;;;;;;2581140;22;19931;-87
2024/03/31 00:06:07;;;;;;;;;;;;;;;;;;2581731;22;19915;-87
2024/03/31 00:07:08;;;;;;;;;;;;;;;;;;2581793;23;19927;-86
2024/03/31 00:08:08;;;;;;;;;;;;;;;;;;2581352;22;19950;-86
2024/03/31 00:09:09;;;;;;;;;;;;;;;;;;2581479;23;19942;-87
2024/03/31 00:10:12;;;;;;;;;;;;;;;;;;2581764;23;19994;-87
2024/03/31 00:11:12;;;;;;;;;;;;;;;;;;2581084;22;19924;-86
2024/03/31 00:12:13;;;;;;;;;;;;;;;;;;2581522;23;20179;-86
2024/03/31 00:13:13;;;;;;;;;;;;;;;;;;2581482;23;19919;-86
2024/03/31 00:14:15;;;;;;;;;;;;;;;;;;2580706;22;19915;-79
2024/03/31 00:15:15;;;;;;;;;;;;;;;;;;2580770;23;19919;-80
2024/03/31 00:16:16;;;;;;;;;;;;;;;;;;2581698;23;19987;-79
2024/03/31 00:17:16;;;;;;;;;;;;;;;;;;2580722;22;19919;-79
2024/03/31 00:18:18;;;;;;;;;;;;;;;;;;2581325;23;19922;-80
2024/03/31 00:19:18;;;;;;;;;;;;;;;;;;2581300;23;19920;-79
2024/03/31 00:20:19;;;;;;;;;;;;;;;;;;2580608;22;20269;-80
2024/03/31 00:21:19;;;;;;;;;;;;;;;;;;2581493;23;19919;-79
2024/03/31 00:22:21;;;;;;;;;;;;;;;;;;2581401;23;19946;-80
2024/03/31 00:23:22;;;;;;;;;;;;;;;;;;2580832;22;19950;-78
2024/03/31 00:24:23;;;;;;;;;;;;;;;;;;2581033;23;19927;-79
2024/03/31 00:25:25;;;;;;;;;;;;;;;;;;2581282;23;19920;-79
2024/03/31 00:26:27;;;;;;;;;;;;;;;;;;2581106;22;19919;-79
2024/03/31 00:27:27;;;;;;;;;;;;;;;;;;2581195;23;19915;-79
2024/03/31 00:28:28;;;;;;;;;;;;;;;;;;2581380;23;20304;-79
2024/03/31 00:29:28;;;;;;;;;;;;;;;;;;2581096;22;19919;-79
2024/03/31 00:30:30;;;;;;;;;;;;;;;;;;2580781;23;20231;-79
2024/03/31 00:31:30;;;;;;;;;;;;;;;;;;2581252;23;19986;-79
2024/03/31 00:32:31;;;;;;;;;;;;;;;;;;2580933;22;19926;-79
2024/03/31 00:33:31;;;;;;;;;;;;;;;;;;2581090;23;19962;-79
2024/03/31 00:34:33;;;;;;;;;;;;;;;;;;2581347;22;19978;-79
2024/03/31 00:35:33;;;;;;;;;;;;;;;;;;2580655;22;20006;-79
2024/03/31 00:36:34;;;;;;;;;;;;;;;;;;2581446;22;20265;-80
2024/03/31 00:37:34;;;;;;;;;;;;;;;;;;2581451;23;19919;-79
2024/03/31 00:38:38;;;;;;;;;;;;;;;;;;2580792;22;19929;-79
2024/03/31 00:39:38;;;;;;;;;;;;;;;;;;2581263;23;19945;-79
2024/03/31 00:40:40;;;;;;;;;;;;;;;;;;2581155;23;19919;-79
2024/03/31 00:41:41;;;;;;;;;;;;;;;;;;2580933;22;19935;-79
2024/03/31 00:42:42;;;;;;;;;;;;;;;;;;2581483;22;19919;-79
2024/03/31 00:43:43;;;;;;;;;;;;;;;;;;2581273;23;19935;-80
2024/03/31 00:44:43;;;;;;;;;;;;;;;;;;2580393;22;19995;-79
2024/03/31 00:45:44;;;;;;;;;;;;;;;;;;2581522;23;19920;-79
2024/03/31 00:46:45;;;;;;;;;;;;;;;;;;2581699;23;20426;-80
2024/03/31 00:47:46;;;;;;;;;;;;;;;;;;2580457;22;19939;-79
2024/03/31 00:48:46;;;;;;;;;;;;;;;;;;2581231;23;19927;-79
2024/03/31 00:49:47;;;;;;;;;;;;;;;;;;2581195;23;19950;-79
2024/03/31 00:50:48;;;;;;;;;;;;;;;;;;2580728;22;20261;-79
2024/03/31 00:51:49;;;;;;;;;;;;;;;;;;2581322;23;19919;-80
2024/03/31 00:52:49;;;;;;;;;;;;;;;;;;2581365;22;19919;-80
2024/03/31 00:53:50;;;;;;;;;;;;;;;;;;2580563;23;19919;-79
2024/03/31 00:54:51;;;;;;;;;;;;;;;;;;2580704;23;19919;-79
2024/03/31 00:55:53;;;;;;;;;;;;;;;;;;2580241;22;19966;-79
2024/03/31 00:56:54;;;;;;;;;;;;;;;;;;2581278;23;19919;-79
2024/03/31 00:57:55;;;;;;;;;;;;;;;;;;2581448;23;19938;-79
2024/03/31 00:58:56;;;;;;;;;;;;;;;;;;2580632;22;19923;-80
2024/03/31 00:59:57;;;;;;;;;;;;;;;;;;2581412;23;19965;-80
2024/03/31 01:00:57;;;;;;;;;;;;;;;;;;2580891;23;19923;-79
2024/03/31 01:01:58;;;;;;;;;;;;;;;;;;2580898;22;19915;-80
2024/03/31 01:03:00;;;;;;;;;;;;;;;;;;2581537;23;20244;-80
2024/03/31 01:04:00;;;;;;;;;;;;;;;;;;2581040;23;19919;-80
2024/03/31 01:05:01;;;;;;;;;;;;;;;;;;2580241;22;19919;-80
2024/03/31 01:06:11;;;;;;;;;;;;;;;;;;2581448;23;19941;-80
2024/03/31 01:07:12;;;;;;;;;;;;;;;;;;2581301;23;19926;-80
2024/03/31 01:08:13;;;;;;;;;;;;;;;;;;2580417;22;19958;-80
2024/03/31 01:09:14;;;;;;;;;;;;;;;;;;2581166;23;20428;-80
2024/03/31 01:10:15;;;;;;;;;;;;;;;;;;2580815;23;20443;-80
2024/03/31 01:11:18;;;;;;;;;;;;;;;;;;2580482;22;19923;-79
2024/03/31 01:12:18;;;;;;;;;;;;;;;;;;2581417;23;19922;-79
2024/03/31 01:13:19;;;;;;;;;;;;;;;;;;2581092;23;19986;-79
2024/03/31 01:14:20;;;;;;;;;;;;;;;;;;2580639;22;19982;-79
2024/03/31 01:15:21;;;;;;;;;;;;;;;;;;2580901;23;19915;-79
2024/03/31 01:16:22;;;;;;;;;;;;;;;;;;2581133;23;19952;-80
2024/03/31 01:17:22;;;;;;;;;;;;;;;;;;2580782;22;20680;-79
2024/03/31 01:18:23;;;;;;;;;;;;;;;;;;2581329;23;20022;-79
2024/03/31 01:19:24;;;;;;;;;;;;;;;;;;2581389;23;20312;-79
2024/03/31 01:20:25;;;;;;;;;;;;;;;;;;2580572;22;20361;-79
2024/03/31 01:21:25;;;;;;;;;;;;;;;;;;2581191;23;19951;-79
2024/03/31 01:22:26;;;;;;;;;;;;;;;;;;2581164;23;20235;-80
2024/03/31 01:23:28;;;;;;;;;;;;;;;;;;2580285;22;20312;-80
2024/03/31 01:24:30;;;;;;;;;;;;;;;;;;2580684;23;19919;-80
2024/03/31 01:25:33;;;;;;;;;;;;;;;;;;2581090;23;19980;-79
2024/03/31 01:26:36;;;;;;;;;;;;;;;;;;2580388;22;19926;-80
2024/03/31 01:27:37;;;;;;;;;;;;;;;;;;2580918;23;19954;-79
2024/03/31 01:28:37;;;;;;;;;;;;;;;;;;2581548;23;20341;-80
2024/03/31 01:29:38;;;;;;;;;;;;;;;;;;2580353;22;19926;-79
2024/03/31 01:30:39;;;;;;;;;;;;;;;;;;2581151;23;19919;-79
2024/03/31 01:31:40;;;;;;;;;;;;;;;;;;2581248;23;20401;-79
2024/03/31 01:32:40;;;;;;;;;;;;;;;;;;2580476;22;19969;-80
2024/03/31 01:33:41;;;;;;;;;;;;;;;;;;2581206;23;19927;-79
2024/03/31 01:34:44;;;;;;;;;;;;;;;;;;2581095;23;19923;-79
2024/03/31 01:35:45;;;;;;;;;;;;;;;;;;2580147;22;19998;-80
2024/03/31 01:36:45;;;;;;;;;;;;;;;;;;2580950;23;19915;-79
2024/03/31 01:37:48;;;;;;;;;;;;;;;;;;2580619;23;19998;-79
2024/03/31 01:38:49;;;;;;;;;;;;;;;;;;2580178;22;20219;-79
2024/03/31 01:39:51;;;;;;;;;;;;;;;;;;2581125;23;19931;-79
2024/03/31 01:40:52;;;;;;;;;;;;;;;;;;2579920;22;19919;-79
2024/03/31 01:41:52;;;;;;;;;;;;;;;;;;2579772;23;19919;-79
2024/03/31 01:42:54;;;;;;;;;;;;;;;;;;2581051;23;19926;-79
2024/03/31 01:43:55;;;;;;;;;;;;;;;;;;2580255;22;20534;-79
2024/03/31 01:44:55;;;;;;;;;;;;;;;;;;2581123;23;19938;-79
2024/03/31 01:45:55;;;;;;;;;;;;;;;;;;2581220;23;19930;-79
2024/03/31 01:46:57;;;;;;;;;;;;;;;;;;2580324;22;20592;-80
2024/03/31 01:47:57;;;;;;;;;;;;;;;;;;2581190;23;19926;-79
2024/03/31 01:48:58;;;;;;;;;;;;;;;;;;2580798;23;20339;-79
2024/03/31 01:49:58;;;;;;;;;;;;;;;;;;2580599;22;19919;-78
2024/03/31 01:51:00;;;;;;;;;;;;;;;;;;2580690;23;19924;-79
2024/03/31 01:52:01;;;;;;;;;;;;;;;;;;2580156;23;19946;-79
2024/03/31 01:53:01;;;;;;;;;;;;;;;;;;2580517;22;19920;-79
2024/03/31 01:54:02;;;;;;;;;;;;;;;;;;2580084;23;19922;-78
2024/03/31 01:55:05;;;;;;;;;;;;;;;;;;2580841;23;19923;-79
2024/03/31 01:56:06;;;;;;;;;;;;;;;;;;2580377;22;20035;-79
2024/03/31 01:57:06;;;;;;;;;;;;;;;;;;2581125;23;19977;-79
2024/03/31 01:58:07;;;;;;;;;;;;;;;;;;2580908;23;19953;-79
2024/03/31 01:59:08;;;;;;;;;;;;;;;;;;2579867;22;19998;-79
2024/03/31 02:00:09;;;;;;;;;;;;;;;;;;2580904;23;19919;-79
2024/03/31 02:01:10;;;;;;;;;;;;;;;;;;2580826;23;19919;-79
2024/03/31 02:02:10;;;;;;;;;;;;;;;;;;2580467;22;19923;-79
2024/03/31 02:03:12;;;;;;;;;;;;;;;;;;2581082;23;19927;-79
2024/03/31 02:04:12;;;;;;;;;;;;;;;;;;2580418;23;19920;-79
2024/03/31 02:05:13;;;;;;;;;;;;;;;;;;2579729;22;19977;-78
2024/03/31 02:06:13;;;;;;;;;;;;;;;;;;2580885;23;19919;-78
2024/03/31 02:07:15;;;;;;;;;;;;;;;;;;2580919;23;19919;-79
2024/03/31 02:08:15;;;;;;;;;;;;;;;;;;2580312;22;19920;-79
2024/03/31 02:09:16;;;;;;;;;;;;;;;;;;2581159;23;20011;-79
2024/03/31 02:10:18;;;;;;;;;;;;;;;;;;2580455;23;20272;-79
2024/03/31 02:11:19;;;;;;;;;;;;;;;;;;2580621;22;19915;-79
2024/03/31 02:12:20;;;;;;;;;;;;;;;;;;2580995;23;19925;-79
2024/03/31 02:13:20;;;;;;;;;;;;;;;;;;2580800;23;20433;-79
2024/03/31 02:14:21;;;;;;;;;;;;;;;;;;2580451;22;19927;-79
2024/03/31 02:15:23;;;;;;;;;;;;;;;;;;2580751;23;19988;-79
2024/03/31 02:16:23;;;;;;;;;;;;;;;;;;2580634;23;19942;-79
2024/03/31 02:17:24;;;;;;;;;;;;;;;;;;2580170;22;19927;-79
2024/03/31 02:18:24;;;;;;;;;;;;;;;;;;2580704;23;20415;-79
2024/03/31 02:19:26;;;;;;;;;;;;;;;;;;2581307;23;19922;-79
2024/03/31 02:20:26;;;;;;;;;;;;;;;;;;2579974;22;20324;-79
2024/03/31 02:21:27;;;;;;;;;;;;;;;;;;2580349;23;19923;-79
2024/03/31 02:22:28;;;;;;;;;;;;;;;;;;2580707;23;19927;-79
2024/03/31 02:23:29;;;;;;;;;;;;;;;;;;2579952;22;20721;-79
2024/03/31 02:24:29;;;;;;;;;;;;;;;;;;2580877;23;19923;-79
2024/03/31 02:25:31;;;;;;;;;;;;;;;;;;2580857;23;20198;-79
2024/03/31 02:26:34;;;;;;;;;;;;;;;;;;2580309;22;19915;-79
2024/03/31 02:27:35;;;;;;;;;;;;;;;;;;2580821;23;19919;-79
2024/03/31 02:28:36;;;;;;;;;;;;;;;;;;2580950;23;19943;-79
2024/03/31 02:29:36;;;;;;;;;;;;;;;;;;2580031;22;19923;-79
2024/03/31 02:30:38;;;;;;;;;;;;;;;;;;2580546;23;20265;-79
2024/03/31 02:31:38;;;;;;;;;;;;;;;;;;2581012;23;20207;-79
2024/03/31 02:32:39;;;;;;;;;;;;;;;;;;2579850;22;19950;-79
2024/03/31 02:33:40;;;;;;;;;;;;;;;;;;2580815;23;19923;-79
2024/03/31 02:34:41;;;;;;;;;;;;;;;;;;2581171;23;20342;-86
2024/03/31 02:35:41;;;;;;;;;;;;;;;;;;2580194;22;19994;-86
2024/03/31 02:36:42;;;;;;;;;;;;;;;;;;2581219;23;20704;-86
2024/03/31 02:37:46;;;;;;;;;;;;;;;;;;2580938;23;20260;-86
2024/03/31 02:38:46;;;;;;;;;;;;;;;;;;2580321;22;19978;-86
2024/03/31 02:39:47;;;;;;;;;;;;;;;;;;2580937;23;19988;-86
2024/03/31 02:40:49;;;;;;;;;;;;;;;;;;2580955;23;19926;-86
2024/03/31 02:41:51;;;;;;;;;;;;;;;;;;2580068;22;19920;-86
2024/03/31 02:42:52;;;;;;;;;;;;;;;;;;2580848;23;20385;-86
2024/03/31 02:43:52;;;;;;;;;;;;;;;;;;2579993;22;19994;-86
2024/03/31 02:44:55;;;;;;;;;;;;;;;;;;2580884;23;19919;-85
2024/03/31 02:45:56;;;;;;;;;;;;;;;;;;2581187;23;19977;-86
2024/03/31 02:46:57;;;;;;;;;;;;;;;;;;2579910;22;19930;-86
2024/03/31 02:47:57;;;;;;;;;;;;;;;;;;2580947;23;19954;-86
2024/03/31 02:48:58;;;;;;;;;;;;;;;;;;2580516;23;19919;-86
2024/03/31 02:49:58;;;;;;;;;;;;;;;;;;2579875;22;19923;-86
2024/03/31 02:51:00;;;;;;;;;;;;;;;;;;2580591;23;19978;-86
2024/03/31 02:52:01;;;;;;;;;;;;;;;;;;2580872;23;19919;-86
2024/03/31 02:53:01;;;;;;;;;;;;;;;;;;2580241;22;20274;-87
2024/03/31 02:54:02;;;;;;;;;;;;;;;;;;2580798;23;19920;-86
2024/03/31 02:55:04;;;;;;;;;;;;;;;;;;2580330;23;19940;-86
2024/03/31 02:56:06;;;;;;;;;;;;;;;;;;2580229;22;19963;-86
2024/03/31 02:57:06;;;;;;;;;;;;;;;;;;2581175;23;19984;-85
2024/03/31 02:58:07;;;;;;;;;;;;;;;;;;2580882;23;20300;-86
2024/03/31 02:59:09;;;;;;;;;;;;;;;;;;2580094;22;19923;-87
2024/03/31 03:00:10;;;;;;;;;;;;;;;;;;2580790;23;19962;-87
2024/03/31 03:01:10;;;;;;;;;;;;;;;;;;2580830;23;19915;-86
2024/03/31 03:02:13;;;;;;;;;;;;;;;;;;2580323;22;19916;-86
2024/03/31 03:03:13;;;;;;;;;;;;;;;;;;2581046;23;19919;-86
2024/03/31 03:04:14;;;;;;;;;;;;;;;;;;2580455;23;19923;-86
2024/03/31 03:05:14;;;;;;;;;;;;;;;;;;2580334;22;19938;-86
2024/03/31 03:06:15;;;;;;;;;;;;;;;;;;2580784;23;19915;-86
2024/03/31 03:07:16;;;;;;;;;;;;;;;;;;2580488;23;19934;-86
2024/03/31 03:08:17;;;;;;;;;;;;;;;;;;2579892;22;19920;-87
2024/03/31 03:09:19;;;;;;;;;;;;;;;;;;2580781;23;19916;-86
2024/03/31 03:10:19;;;;;;;;;;;;;;;;;;2580696;23;20349;-87
2024/03/31 03:11:22;;;;;;;;;;;;;;;;;;2580416;22;19919;-86
2024/03/31 03:12:23;;;;;;;;;;;;;;;;;;2580771;23;20269;-87
2024/03/31 03:13:24;;;;;;;;;;;;;;;;;;2580775;23;19919;-87
2024/03/31 03:14:25;;;;;;;;;;;;;;;;;;2579973;22;19942;-87
2024/03/31 03:15:26;;;;;;;;;;;;;;;;;;2580179;23;20351;-87
2024/03/31 03:16:27;;;;;;;;;;;;;;;;;;2580738;23;19928;-87
2024/03/31 03:17:28;;;;;;;;;;;;;;;;;;2580088;22;20639;-86
2024/03/31 03:18:29;;;;;;;;;;;;;;;;;;2580671;23;19920;-87
2024/03/31 03:19:30;;;;;;;;;;;;;;;;;;2580844;23;19919;-87
2024/03/31 03:20:30;;;;;;;;;;;;;;;;;;2580119;22;20306;-87
2024/03/31 03:21:31;;;;;;;;;;;;;;;;;;2580783;23;19919;-87
2024/03/31 03:22:34;;;;;;;;;;;;;;;;;;2580838;23;20010;-87
2024/03/31 03:23:34;;;;;;;;;;;;;;;;;;2580498;22;19915;-87
2024/03/31 03:24:35;;;;;;;;;;;;;;;;;;2580915;23;19920;-87
2024/03/31 03:25:36;;;;;;;;;;;;;;;;;;2580840;23;19929;-87
2024/03/31 03:26:39;;;;;;;;;;;;;;;;;;2579706;22;19923;-87
2024/03/31 03:27:39;;;;;;;;;;;;;;;;;;2580823;23;19966;-86
2024/03/31 03:28:41;;;;;;;;;;;;;;;;;;2580904;23;19919;-87
2024/03/31 03:29:42;;;;;;;;;;;;;;;;;;2579756;22;19935;-86
2024/03/31 03:30:45;;;;;;;;;;;;;;;;;;2581064;23;19969;-86
2024/03/31 03:31:46;;;;;;;;;;;;;;;;;;2580944;23;20324;-86
2024/03/31 03:32:47;;;;;;;;;;;;;;;;;;2579671;22;19970;-86
2024/03/31 03:33:49;;;;;;;;;;;;;;;;;;2580691;23;19969;-86
2024/03/31 03:34:50;;;;;;;;;;;;;;;;;;2580521;23;20016;-87
2024/03/31 03:35:51;;;;;;;;;;;;;;;;;;2567543;23;19927;-87
2024/03/31 03:36:52;;;;;;;;;;;;;;;;;;2568260;23;19950;-87
2024/03/31 03:37:54;;;;;;;;;;;;;;;;;;2567775;23;20734;-86
2024/03/31 03:38:54;;;;;;;;;;;;;;;;;;2568855;23;19920;-87
2024/03/31 03:39:56;;;;;;;;;;;;;;;;;;2568806;23;19989;-87
2024/03/31 03:40:56;;;;;;;;;;;;;;;;;;2568976;23;19927;-86
2024/03/31 03:41:59;;;;;;;;;;;;;;;;;;2569553;23;20323;-87
2024/03/31 03:43:00;;;;;;;;;;;;;;;;;;2569278;23;19927;-86
2024/03/31 03:44:00;;;;;;;;;;;;;;;;;;2568724;23;20319;-87
2024/03/31 03:45:02;;;;;;;;;;;;;;;;;;2569080;23;20050;-86
2024/03/31 03:46:02;;;;;;;;;;;;;;;;;;2569278;23;20414;-87
2024/03/31 03:47:03;;;;;;;;;;;;;;;;;;2568743;23;19947;-87
2024/03/31 03:48:04;;;;;;;;;;;;;;;;;;2568905;23;19926;-87
2024/03/31 03:49:06;;;;;;;;;;;;;;;;;;2569498;23;19926;-87
2024/03/31 03:50:06;;;;;;;;;;;;;;;;;;2568514;23;19916;-87
2024/03/31 03:51:07;;;;;;;;;;;;;;;;;;2568951;23;19943;-86
2024/03/31 03:52:08;;;;;;;;;;;;;;;;;;2569099;23;19919;-87
2024/03/31 03:53:09;;;;;;;;;;;;;;;;;;2568440;23;19920;-86
2024/03/31 03:54:09;;;;;;;;;;;;;;;;;;2569165;23;20314;-86
2024/03/31 03:55:11;;;;;;;;;;;;;;;;;;2569468;23;19927;-87
2024/03/31 03:56:11;;;;;;;;;;;;;;;;;;2568393;23;19919;-86
2024/03/31 03:57:13;;;;;;;;;;;;;;;;;;2568940;23;19951;-86
2024/03/31 03:58:14;;;;;;;;;;;;;;;;;;2568698;23;20204;-87
2024/03/31 03:59:15;;;;;;;;;;;;;;;;;;2568922;23;19927;-87
2024/03/31 04:00:16;;;;;;;;;;;;;;;;;;2568977;23;19988;-87
2024/03/31 04:01:17;;;;;;;;;;;;;;;;;;2568975;23;19970;-87
2024/03/31 04:02:17;;;;;;;;;;;;;;;;;;2568825;23;19931;-87
2024/03/31 04:03:19;;;;;;;;;;;;;;;;;;2568871;23;19998;-87
2024/03/31 04:04:19;;;;;;;;;;;;;;;;;;2569115;23;19919;-87
2024/03/31 04:05:20;;;;;;;;;;;;;;;;;;2568310;23;19990;-86
2024/03/31 04:06:20;;;;;;;;;;;;;;;;;;2569035;23;20251;-86
2024/03/31 04:07:21;;;;;;;;;;;;;;;;;;2569102;23;19916;-86
2024/03/31 04:08:22;;;;;;;;;;;;;;;;;;2568474;23;19923;-86
2024/03/31 04:09:23;;;;;;;;;;;;;;;;;;2568512;23;19920;-86
2024/03/31 04:10:24;;;;;;;;;;;;;;;;;;2568660;23;20015;-86
2024/03/31 04:11:24;;;;;;;;;;;;;;;;;;2568486;23;19920;-86
2024/03/31 04:12:27;;;;;;;;;;;;;;;;;;2569218;23;19954;-86
2024/03/31 04:13:28;;;;;;;;;;;;;;;;;;2568782;23;20259;-86
2024/03/31 04:14:28;;;;;;;;;;;;;;;;;;2568333;23;19920;-86
2024/03/31 04:15:29;;;;;;;;;;;;;;;;;;2568602;23;19920;-85
2024/03/31 04:16:31;;;;;;;;;;;;;;;;;;2568977;23;19999;-86
2024/03/31 04:17:34;;;;;;;;;;;;;;;;;;2568504;23;19920;-86
2024/03/31 04:18:35;;;;;;;;;;;;;;;;;;2569053;23;19919;-86
2024/03/31 04:19:35;;;;;;;;;;;;;;;;;;2569147;23;19989;-86
2024/03/31 04:20:43;;;;;;;;;;;;;;;;;;2568551;23;19999;-86
2024/03/31 04:21:43;;;;;;;;;;;;;;;;;;2568888;23;19923;-86
2024/03/31 04:22:44;;;;;;;;;;;;;;;;;;2568944;23;20329;-85
2024/03/31 04:23:44;;;;;;;;;;;;;;;;;;2568392;23;20344;-86
2024/03/31 04:24:46;;;;;;;;;;;;;;;;;;2568907;23;19922;-86
2024/03/31 04:25:47;;;;;;;;;;;;;;;;;;2569397;23;19926;-86
2024/03/31 04:26:48;;;;;;;;;;;;;;;;;;2568561;23;20014;-86
2024/03/31 04:27:52;;;;;;;;;;;;;;;;;;2569286;23;20289;-86
2024/03/31 04:28:53;;;;;;;;;;;;;;;;;;2568326;23;19920;-86
2024/03/31 04:29:54;;;;;;;;;;;;;;;;;;2569082;23;19920;-86
2024/03/31 04:30:54;;;;;;;;;;;;;;;;;;2569285;23;20289;-86
2024/03/31 04:31:55;;;;;;;;;;;;;;;;;;2567883;23;19926;-86
2024/03/31 04:32:57;;;;;;;;;;;;;;;;;;2568964;23;20639;-86
2024/03/31 04:33:57;;;;;;;;;;;;;;;;;;2569394;23;20042;-86
2024/03/31 04:34:58;;;;;;;;;;;;;;;;;;2568627;23;20309;-86
2024/03/31 04:36:00;;;;;;;;;;;;;;;;;;2569385;23;19993;-85
2024/03/31 04:37:00;;;;;;;;;;;;;;;;;;2569016;23;19930;-86
2024/03/31 04:38:01;;;;;;;;;;;;;;;;;;2568638;23;19994;-86
2024/03/31 04:39:04;;;;;;;;;;;;;;;;;;2568642;23;19995;-85
2024/03/31 04:40:06;;;;;;;;;;;;;;;;;;2568899;23;19943;-86
2024/03/31 04:41:07;;;;;;;;;;;;;;;;;;2568296;23;19915;-85
2024/03/31 04:42:07;;;;;;;;;;;;;;;;;;2569135;23;19919;-86
2024/03/31 04:43:09;;;;;;;;;;;;;;;;;;2569294;23;20112;-86
2024/03/31 04:44:11;;;;;;;;;;;;;;;;;;2568396;23;20528;-86
2024/03/31 04:45:11;;;;;;;;;;;;;;;;;;2569136;23;19923;-86
2024/03/31 04:46:12;;;;;;;;;;;;;;;;;;2568966;23;20011;-85
2024/03/31 04:47:12;;;;;;;;;;;;;;;;;;2568262;23;19920;-86
2024/03/31 04:48:14;;;;;;;;;;;;;;;;;;2568884;23;19919;-85
2024/03/31 04:49:14;;;;;;;;;;;;;;;;;;2569219;23;19993;-85
2024/03/31 04:50:15;;;;;;;;;;;;;;;;;;2567637;23;19924;-85
2024/03/31 04:51:17;;;;;;;;;;;;;;;;;;2569307;23;19947;-85
2024/03/31 04:52:17;;;;;;;;;;;;;;;;;;2569064;23;19973;-85
2024/03/31 04:53:18;;;;;;;;;;;;;;;;;;2568319;23;20666;-85
2024/03/31 04:54:20;;;;;;;;;;;;;;;;;;2568844;23;20545;-86
2024/03/31 04:55:20;;;;;;;;;;;;;;;;;;2569141;23;20089;-85
2024/03/31 04:56:21;;;;;;;;;;;;;;;;;;2568669;23;19919;-85
2024/03/31 04:57:22;;;;;;;;;;;;;;;;;;2569290;23;19920;-86
2024/03/31 04:58:25;;;;;;;;;;;;;;;;;;2568874;23;20428;-86
2024/03/31 04:59:25;;;;;;;;;;;;;;;;;;2568158;23;19924;-85
2024/03/31 05:00:26;;;;;;;;;;;;;;;;;;2568831;23;19919;-85
2024/03/31 05:01:26;;;;;;;;;;;;;;;;;;2568553;23;19934;-85
2024/03/31 05:02:28;;;;;;;;;;;;;;;;;;2568347;23;19923;-85
2024/03/31 05:03:29;;;;;;;;;;;;;;;;;;2568740;23;19920;-86
2024/03/31 05:04:30;;;;;;;;;;;;;;;;;;2569005;23;19970;-85
2024/03/31 05:05:35;;;;;;;;;;;;;;;;;;2568595;23;19920;-85
2024/03/31 05:06:37;;;;;;;;;;;;;;;;;;2569439;23;19915;-85
2024/03/31 05:07:37;;;;;;;;;;;;;;;;;;2568822;23;19926;-85
2024/03/31 05:08:38;;;;;;;;;;;;;;;;;;2568788;23;19998;-85
2024/03/31 05:09:38;;;;;;;;;;;;;;;;;;2568756;23;20239;-86
2024/03/31 05:10:40;;;;;;;;;;;;;;;;;;2569376;23;19922;-85
2024/03/31 05:11:40;;;;;;;;;;;;;;;;;;2568433;23;19920;-86
2024/03/31 05:12:41;;;;;;;;;;;;;;;;;;2569189;23;19922;-86
2024/03/31 05:13:44;;;;;;;;;;;;;;;;;;2569662;23;19931;-86
2024/03/31 05:14:44;;;;;;;;;;;;;;;;;;2568552;23;19920;-86
2024/03/31 05:15:45;;;;;;;;;;;;;;;;;;2568890;23;20286;-85
2024/03/31 05:16:46;;;;;;;;;;;;;;;;;;2569351;23;19927;-86
2024/03/31 05:17:47;;;;;;;;;;;;;;;;;;2569075;23;19955;-86
2024/03/31 05:18:50;;;;;;;;;;;;;;;;;;2569431;23;19920;-86
2024/03/31 05:19:52;;;;;;;;;;;;;;;;;;2568867;23;19990;-86
2024/03/31 05:20:56;;;;;;;;;;;;;;;;;;2569490;23;19927;-85
2024/03/31 05:21:56;;;;;;;;;;;;;;;;;;2569274;23;19920;-85
2024/03/31 05:22:58;;;;;;;;;;;;;;;;;;2568868;23;19924;-86
2024/03/31 05:23:58;;;;;;;;;;;;;;;;;;2569922;23;19927;-85
2024/03/31 05:24:59;;;;;;;;;;;;;;;;;;2569764;23;19916;-85
2024/03/31 05:25:59;;;;;;;;;;;;;;;;;;2568749;23;19994;-85
2024/03/31 05:27:01;;;;;;;;;;;;;;;;;;2570004;23;19919;-85
2024/03/31 05:28:01;;;;;;;;;;;;;;;;;;2569677;23;20306;-85
2024/03/31 05:29:03;;;;;;;;;;;;;;;;;;2569410;23;19920;-85
2024/03/31 05:30:04;;;;;;;;;;;;;;;;;;2569552;23;20261;-85
2024/03/31 05:31:06;;;;;;;;;;;;;;;;;;2569280;23;19919;-85
2024/03/31 05:32:06;;;;;;;;;;;;;;;;;;2569342;23;19919;-85
2024/03/31 05:33:07;;;;;;;;;;;;;;;;;;2569590;23;19930;-86
2024/03/31 05:34:08;;;;;;;;;;;;;;;;;;2569523;23;20322;-85
2024/03/31 05:35:09;;;;;;;;;;;;;;;;;;2568882;23;19926;-85
2024/03/31 05:36:10;;;;;;;;;;;;;;;;;;2569801;23;19920;-85
2024/03/31 05:37:10;;;;;;;;;;;;;;;;;;2569788;23;19971;-85
2024/03/31 05:38:11;;;;;;;;;;;;;;;;;;2569153;23;19939;-85
2024/03/31 05:39:13;;;;;;;;;;;;;;;;;;2569833;23;19919;-86
2024/03/31 05:40:13;;;;;;;;;;;;;;;;;;2569906;23;19920;-86
2024/03/31 05:41:14;;;;;;;;;;;;;;;;;;2568886;23;19966;-86
2024/03/31 05:42:14;;;;;;;;;;;;;;;;;;2569558;23;19919;-85
2024/03/31 05:43:16;;;;;;;;;;;;;;;;;;2569956;23;19950;-85
2024/03/31 05:44:18;;;;;;;;;;;;;;;;;;2569029;23;20330;-85
2024/03/31 05:45:19;;;;;;;;;;;;;;;;;;2568811;23;19920;-85
2024/03/31 05:46:21;;;;;;;;;;;;;;;;;;2569008;23;19923;-86
2024/03/31 05:47:23;;;;;;;;;;;;;;;;;;2568499;23;20287;-85
2024/03/31 05:48:23;;;;;;;;;;;;;;;;;;2569346;23;19920;-85
2024/03/31 05:49:24;;;;;;;;;;;;;;;;;;2569184;23;19926;-85
2024/03/31 05:50:25;;;;;;;;;;;;;;;;;;2568698;23;19947;-85
2024/03/31 05:51:26;;;;;;;;;;;;;;;;;;2568999;23;19920;-85
2024/03/31 05:52:26;;;;;;;;;;;;;;;;;;2569398;23;19919;-85
2024/03/31 05:53:27;;;;;;;;;;;;;;;;;;2568136;23;19923;-86
2024/03/31 05:54:28;;;;;;;;;;;;;;;;;;2568771;23;19919;-85
2024/03/31 05:55:29;;;;;;;;;;;;;;;;;;2569847;23;19943;-85
2024/03/31 05:56:30;;;;;;;;;;;;;;;;;;2569073;23;19926;-85
2024/03/31 05:57:30;;;;;;;;;;;;;;;;;;2569741;23;20254;-85
2024/03/31 05:58:32;;;;;;;;;;;;;;;;;;2569679;23;19919;-85
2024/03/31 05:59:33;;;;;;;;;;;;;;;;;;2568842;23;20625;-85
2024/03/31 06:00:34;;;;;;;;;;;;;;;;;;2569378;23;20057;-85
2024/03/31 06:01:34;;;;;;;;;;;;;;;;;;2569329;23;19924;-85
2024/03/31 06:02:36;;;;;;;;;;;;;;;;;;2569012;23;19919;-84
2024/03/31 06:03:36;;;;;;;;;;;;;;;;;;2569333;23;19919;-85
2024/03/31 06:04:38;;;;;;;;;;;;;;;;;;2569192;23;19962;-85
2024/03/31 06:05:38;;;;;;;;;;;;;;;;;;2568293;23;20231;-85
2024/03/31 06:06:40;;;;;;;;;;;;;;;;;;2569449;23;20015;-84
2024/03/31 06:07:40;;;;;;;;;;;;;;;;;;2569106;23;19920;-85
2024/03/31 06:08:41;;;;;;;;;;;;;;;;;;2568366;23;19995;-85
2024/03/31 06:09:43;;;;;;;;;;;;;;;;;;2568639;23;20262;-85
2024/03/31 06:10:45;;;;;;;;;;;;;;;;;;2568437;23;19928;-85
2024/03/31 06:11:46;;;;;;;;;;;;;;;;;;2567845;23;20026;-85
2024/03/31 06:12:46;;;;;;;;;;;;;;;;;;2568380;23;19955;-86
2024/03/31 06:13:47;;;;;;;;;;;;;;;;;;2567984;23;20062;-86
2024/03/31 06:14:50;;;;;;;;;;;;;;;;;;2567953;23;19923;-85
2024/03/31 06:15:50;;;;;;;;;;;;;;;;;;2568568;23;19926;-85
2024/03/31 06:16:51;;;;;;;;;;;;;;;;;;2567945;23;20014;-85
2024/03/31 06:17:51;;;;;;;;;;;;;;;;;;2568586;23;20349;-85
2024/03/31 06:18:53;;;;;;;;;;;;;;;;;;2568414;23;19947;-85
2024/03/31 06:19:53;;;;;;;;;;;;;;;;;;2567757;23;19973;-85
2024/03/31 06:20:54;;;;;;;;;;;;;;;;;;2568647;23;19924;-85
2024/03/31 06:21:54;;;;;;;;;;;;;;;;;;2568548;23;20055;-86
2024/03/31 06:22:56;;;;;;;;;;;;;;;;;;2567596;23;19958;-85
2024/03/31 06:23:56;;;;;;;;;;;;;;;;;;2568376;23;19939;-85
2024/03/31 06:24:57;;;;;;;;;;;;;;;;;;2568416;23;20396;-85
2024/03/31 06:25:57;;;;;;;;;;;;;;;;;;2567964;23;19924;-85
2024/03/31 06:26:59;;;;;;;;;;;;;;;;;;2568474;23;19923;-85
2024/03/31 06:27:59;;;;;;;;;;;;;;;;;;2568324;23;19920;-85
2024/03/31 06:29:00;;;;;;;;;;;;;;;;;;2568057;23;19974;-86
2024/03/31 06:30:02;;;;;;;;;;;;;;;;;;2568208;23;20265;-86
2024/03/31 06:31:06;;;;;;;;;;;;;;;;;;2568776;23;20364;-86
2024/03/31 06:32:07;;;;;;;;;;;;;;;;;;2567948;23;20333;-86
2024/03/31 06:33:07;;;;;;;;;;;;;;;;;;2568273;23;19999;-85
2024/03/31 06:34:09;;;;;;;;;;;;;;;;;;2568461;23;19923;-86
2024/03/31 06:35:10;;;;;;;;;;;;;;;;;;2567896;23;19920;-85
2024/03/31 06:36:10;;;;;;;;;;;;;;;;;;2567878;23;19922;-85
2024/03/31 06:37:11;;;;;;;;;;;;;;;;;;2568511;23;19920;-86
2024/03/31 06:38:12;;;;;;;;;;;;;;;;;;2567937;23;19926;-85
2024/03/31 06:39:13;;;;;;;;;;;;;;;;;;2568177;23;20015;-86
2024/03/31 06:40:13;;;;;;;;;;;;;;;;;;2568470;23;19916;-85
2024/03/31 06:41:14;;;;;;;;;;;;;;;;;;2567969;23;19920;-86
2024/03/31 06:42:16;;;;;;;;;;;;;;;;;;2568708;23;19944;-85
2024/03/31 06:43:16;;;;;;;;;;;;;;;;;;2568430;23;19954;-85
2024/03/31 06:44:17;;;;;;;;;;;;;;;;;;2567743;23;20265;-86
2024/03/31 06:45:19;;;;;;;;;;;;;;;;;;2568446;23;19995;-85
2024/03/31 06:46:20;;;;;;;;;;;;;;;;;;2568247;23;19919;-85
2024/03/31 06:47:21;;;;;;;;;;;;;;;;;;2567575;23;19919;-85
2024/03/31 06:48:22;;;;;;;;;;;;;;;;;;2568249;23;19919;-85
2024/03/31 06:49:22;;;;;;;;;;;;;;;;;;2568022;23;19920;-85
2024/03/31 06:50:24;;;;;;;;;;;;;;;;;;2567574;23;19928;-85
2024/03/31 06:51:24;;;;;;;;;;;;;;;;;;2567992;23;19995;-85
2024/03/31 06:52:25;;;;;;;;;;;;;;;;;;2568478;23;19927;-85
2024/03/31 06:53:25;;;;;;;;;;;;;;;;;;2567769;23;19919;-85
2024/03/31 06:54:27;;;;;;;;;;;;;;;;;;2568526;23;19924;-85
2024/03/31 06:55:27;;;;;;;;;;;;;;;;;;2568462;23;19923;-85
2024/03/31 06:56:28;;;;;;;;;;;;;;;;;;2567805;23;19986;-84
2024/03/31 06:57:31;;;;;;;;;;;;;;;;;;2568520;23;20356;-85